sensor_id;sensor_type;location;lat;lon;timestamp;pressure;altitude;pressure_sealevel;temperature
58307;BMP280;44116;50.884;4.768;2023-05-21T00:01:23;101300.0;;;12.4
58307;BMP280;44116;50.884;4.768;2023-05-21T00:05:22;101300.0;;;12.4
58307;BMP280;44116;50.884;4.768;2023-05-21T00:07:22;101300.0;;;12.4
58307;BMP280;44116;50.884;4.768;2023-05-21T00:09:22;101300.0;;;12.3
58307;BMP280;44116;50.884;4.768;2023-05-21T00:11:22;101300.0;;;12.2
58307;BMP280;44116;50.884;4.768;2023-05-21T00:13:21;101300.0;;;12.1
58307;BMP280;44116;50.884;4.768;2023-05-21T00:15:21;101290.0;;;12.1
58307;BMP280;44116;50.884;4.768;2023-05-21T00:17:21;101290.0;;;12.0
58307;BMP280;44116;50.884;4.768;2023-05-21T00:19:21;101290.0;;;12.1
58307;BMP280;44116;50.884;4.768;2023-05-21T00:21:21;101290.0;;;12.1
58307;BMP280;44116;50.884;4.768;2023-05-21T00:23:21;101290.0;;;11.9
58307;BMP280;44116;50.884;4.768;2023-05-21T00:27:20;101280.0;;;11.8
58307;BMP280;44116;50.884;4.768;2023-05-21T00:29:20;101290.0;;;11.9
58307;BMP280;44116;50.884;4.768;2023-05-21T00:33:20;101280.0;;;11.5
58307;BMP280;44116;50.884;4.768;2023-05-21T00:35:19;101280.0;;;11.7
58307;BMP280;44116;50.884;4.768;2023-05-21T00:37:19;101280.0;;;11.7
58307;BMP280;44116;50.884;4.768;2023-05-21T00:39:19;101270.0;;;11.6
58307;BMP280;44116;50.884;4.768;2023-05-21T00:41:19;101280.0;;;11.5
58307;BMP280;44116;50.884;4.768;2023-05-21T00:43:19;101280.0;;;11.4
58307;BMP280;44116;50.884;4.768;2023-05-21T00:45:19;101280.0;;;11.3
58307;BMP280;44116;50.884;4.768;2023-05-21T00:47:18;101280.0;;;11.5
58307;BMP280;44116;50.884;4.768;2023-05-21T00:49:18;101280.0;;;11.2
58307;BMP280;44116;50.884;4.768;2023-05-21T00:51:18;101280.0;;;11.5
58307;BMP280;44116;50.884;4.768;2023-05-21T00:53:18;101280.0;;;11.1
58307;BMP280;44116;50.884;4.768;2023-05-21T00:55:18;101280.0;;;11.2
58307;BMP280;44116;50.884;4.768;2023-05-21T00:57:18;101280.0;;;11.4
58307;BMP280;44116;50.884;4.768;2023-05-21T00:59:17;101280.0;;;11.4
58307;BMP280;44116;50.884;4.768;2023-05-21T01:01:17;101280.0;;;11.2
58307;BMP280;44116;50.884;4.768;2023-05-21T01:03:17;101280.0;;;11.2
58307;BMP280;44116;50.884;4.768;2023-05-21T01:05:17;101280.0;;;11.2
58307;BMP280;44116;50.884;4.768;2023-05-21T01:07:17;101280.0;;;11.4
58307;BMP280;44116;50.884;4.768;2023-05-21T01:09:16;101280.0;;;11.4
58307;BMP280;44116;50.884;4.768;2023-05-21T01:13:16;101280.0;;;11.5
58307;BMP280;44116;50.884;4.768;2023-05-21T01:17:16;101280.0;;;11.2
58307;BMP280;44116;50.884;4.768;2023-05-21T01:19:16;101280.0;;;11.1
58307;BMP280;44116;50.884;4.768;2023-05-21T01:21:15;101280.0;;;10.9
58307;BMP280;44116;50.884;4.768;2023-05-21T01:23:15;101280.0;;;11.1
58307;BMP280;44116;50.884;4.768;2023-05-21T01:25:15;101270.0;;;11.2
58307;BMP280;44116;50.884;4.768;2023-05-21T01:29:15;101260.0;;;11.1
58307;BMP280;44116;50.884;4.768;2023-05-21T01:31:17;101270.0;;;11.1
58307;BMP280;44116;50.884;4.768;2023-05-21T01:33:16;101270.0;;;11.1
58307;BMP280;44116;50.884;4.768;2023-05-21T01:35:16;101270.0;;;10.8
58307;BMP280;44116;50.884;4.768;2023-05-21T01:37:17;101270.0;;;11.0
58307;BMP280;44116;50.884;4.768;2023-05-21T01:39:14;101270.0;;;10.9
58307;BMP280;44116;50.884;4.768;2023-05-21T01:41:14;101270.0;;;10.8
58307;BMP280;44116;50.884;4.768;2023-05-21T01:43:13;101270.0;;;10.6
58307;BMP280;44116;50.884;4.768;2023-05-21T01:45:13;101260.0;;;10.5
58307;BMP280;44116;50.884;4.768;2023-05-21T01:47:13;101260.0;;;10.6
58307;BMP280;44116;50.884;4.768;2023-05-21T01:51:13;101250.0;;;10.7
58307;BMP280;44116;50.884;4.768;2023-05-21T01:53:12;101250.0;;;10.7
58307;BMP280;44116;50.884;4.768;2023-05-21T01:55:12;101250.0;;;10.8
58307;BMP280;44116;50.884;4.768;2023-05-21T01:57:12;101240.0;;;10.6
58307;BMP280;44116;50.884;4.768;2023-05-21T01:59:12;101250.0;;;10.6
58307;BMP280;44116;50.884;4.768;2023-05-21T02:01:12;101250.0;;;10.8
58307;BMP280;44116;50.884;4.768;2023-05-21T02:03:11;101240.0;;;10.7
58307;BMP280;44116;50.884;4.768;2023-05-21T02:05:11;101240.0;;;10.5
58307;BMP280;44116;50.884;4.768;2023-05-21T02:07:11;101230.0;;;10.5
58307;BMP280;44116;50.884;4.768;2023-05-21T02:09:11;101230.0;;;10.4
58307;BMP280;44116;50.884;4.768;2023-05-21T02:11:11;101230.0;;;10.3
58307;BMP280;44116;50.884;4.768;2023-05-21T02:13:10;101230.0;;;10.4
58307;BMP280;44116;50.884;4.768;2023-05-21T02:15:10;101230.0;;;10.4
58307;BMP280;44116;50.884;4.768;2023-05-21T02:17:10;101230.0;;;10.5
58307;BMP280;44116;50.884;4.768;2023-05-21T02:19:10;101230.0;;;10.4
58307;BMP280;44116;50.884;4.768;2023-05-21T02:21:10;101230.0;;;10.4
58307;BMP280;44116;50.884;4.768;2023-05-21T02:23:09;101220.0;;;10.5
58307;BMP280;44116;50.884;4.768;2023-05-21T02:25:10;101230.0;;;10.6
58307;BMP280;44116;50.884;4.768;2023-05-21T02:27:09;101220.0;;;10.3
58307;BMP280;44116;50.884;4.768;2023-05-21T02:29:09;101220.0;;;10.5
58307;BMP280;44116;50.884;4.768;2023-05-21T02:31:08;101220.0;;;10.3
58307;BMP280;44116;50.884;4.768;2023-05-21T02:35:09;101230.0;;;10.5
58307;BMP280;44116;50.884;4.768;2023-05-21T02:37:08;101230.0;;;10.6
58307;BMP280;44116;50.884;4.768;2023-05-21T02:39:08;101230.0;;;10.4
58307;BMP280;44116;50.884;4.768;2023-05-21T02:41:08;101230.0;;;10.3
58307;BMP280;44116;50.884;4.768;2023-05-21T02:43:07;101230.0;;;10.4
58307;BMP280;44116;50.884;4.768;2023-05-21T02:45:08;101230.0;;;10.2
58307;BMP280;44116;50.884;4.768;2023-05-21T02:47:07;101220.0;;;10.5
58307;BMP280;44116;50.884;4.768;2023-05-21T02:49:07;101220.0;;;10.4
58307;BMP280;44116;50.884;4.768;2023-05-21T02:51:06;101220.0;;;10.3
58307;BMP280;44116;50.884;4.768;2023-05-21T02:53:06;101220.0;;;10.3
58307;BMP280;44116;50.884;4.768;2023-05-21T02:55:06;101220.0;;;10.3
58307;BMP280;44116;50.884;4.768;2023-05-21T02:57:06;101220.0;;;10.5
58307;BMP280;44116;50.884;4.768;2023-05-21T02:59:05;101220.0;;;10.2
58307;BMP280;44116;50.884;4.768;2023-05-21T03:01:05;101210.0;;;10.3
58307;BMP280;44116;50.884;4.768;2023-05-21T03:03:05;101210.0;;;10.2
58307;BMP280;44116;50.884;4.768;2023-05-21T03:05:05;101210.0;;;10.4
58307;BMP280;44116;50.884;4.768;2023-05-21T03:07:05;101210.0;;;10.1
58307;BMP280;44116;50.884;4.768;2023-05-21T03:09:04;101210.0;;;10.3
58307;BMP280;44116;50.884;4.768;2023-05-21T03:11:04;101200.0;;;10.1
58307;BMP280;44116;50.884;4.768;2023-05-21T03:13:04;101210.0;;;10.4
58307;BMP280;44116;50.884;4.768;2023-05-21T03:15:04;101200.0;;;10.2
58307;BMP280;44116;50.884;4.768;2023-05-21T03:17:04;101210.0;;;10.4
58307;BMP280;44116;50.884;4.768;2023-05-21T03:19:03;101210.0;;;10.2
58307;BMP280;44116;50.884;4.768;2023-05-21T03:21:03;101210.0;;;10.4
58307;BMP280;44116;50.884;4.768;2023-05-21T03:23:03;101210.0;;;10.3
58307;BMP280;44116;50.884;4.768;2023-05-21T03:25:03;101210.0;;;10.0
58307;BMP280;44116;50.884;4.768;2023-05-21T03:29:02;101200.0;;;10.3
58307;BMP280;44116;50.884;4.768;2023-05-21T03:33:02;101200.0;;;10.2
58307;BMP280;44116;50.884;4.768;2023-05-21T03:35:02;101210.0;;;10.4
58307;BMP280;44116;50.884;4.768;2023-05-21T03:37:01;101220.0;;;10.5
58307;BMP280;44116;50.884;4.768;2023-05-21T03:39:01;101210.0;;;10.4
58307;BMP280;44116;50.884;4.768;2023-05-21T03:41:01;101210.0;;;10.4
58307;BMP280;44116;50.884;4.768;2023-05-21T03:43:00;101220.0;;;10.2
58307;BMP280;44116;50.884;4.768;2023-05-21T03:45:02;101210.0;;;10.3
58307;BMP280;44116;50.884;4.768;2023-05-21T03:47:00;101210.0;;;10.4
58307;BMP280;44116;50.884;4.768;2023-05-21T03:49:00;101210.0;;;10.3
58307;BMP280;44116;50.884;4.768;2023-05-21T03:50:59;101210.0;;;10.4
58307;BMP280;44116;50.884;4.768;2023-05-21T03:52:59;101210.0;;;10.2
58307;BMP280;44116;50.884;4.768;2023-05-21T03:54:59;101210.0;;;10.2
58307;BMP280;44116;50.884;4.768;2023-05-21T03:56:59;101210.0;;;10.0
58307;BMP280;44116;50.884;4.768;2023-05-21T03:58:58;101200.0;;;10.1
58307;BMP280;44116;50.884;4.768;2023-05-21T04:00:58;101200.0;;;10.2
58307;BMP280;44116;50.884;4.768;2023-05-21T04:02:58;101190.0;;;10.0
58307;BMP280;44116;50.884;4.768;2023-05-21T04:04:58;101190.0;;;10.2
58307;BMP280;44116;50.884;4.768;2023-05-21T04:06:57;101200.0;;;10.4
58307;BMP280;44116;50.884;4.768;2023-05-21T04:08:57;101200.0;;;10.3
58307;BMP280;44116;50.884;4.768;2023-05-21T04:10:57;101200.0;;;10.4
58307;BMP280;44116;50.884;4.768;2023-05-21T04:12:57;101210.0;;;10.5
58307;BMP280;44116;50.884;4.768;2023-05-21T04:14:56;101210.0;;;10.5
58307;BMP280;44116;50.884;4.768;2023-05-21T04:16:56;101210.0;;;10.3
58307;BMP280;44116;50.884;4.768;2023-05-21T04:18:56;101210.0;;;10.5
58307;BMP280;44116;50.884;4.768;2023-05-21T04:20:56;101210.0;;;10.4
58307;BMP280;44116;50.884;4.768;2023-05-21T04:22:55;101210.0;;;10.3
58307;BMP280;44116;50.884;4.768;2023-05-21T04:24:55;101210.0;;;10.3
58307;BMP280;44116;50.884;4.768;2023-05-21T04:26:55;101200.0;;;10.4
58307;BMP280;44116;50.884;4.768;2023-05-21T04:28:55;101210.0;;;10.6
58307;BMP280;44116;50.884;4.768;2023-05-21T04:30:55;101210.0;;;10.6
58307;BMP280;44116;50.884;4.768;2023-05-21T04:32:54;101220.0;;;10.6
58307;BMP280;44116;50.884;4.768;2023-05-21T04:34:54;101210.0;;;10.6
58307;BMP280;44116;50.884;4.768;2023-05-21T04:36:54;101220.0;;;10.6
58307;BMP280;44116;50.884;4.768;2023-05-21T04:38:53;101220.0;;;10.6
58307;BMP280;44116;50.884;4.768;2023-05-21T04:40:53;101210.0;;;10.6
58307;BMP280;44116;50.884;4.768;2023-05-21T04:42:53;101220.0;;;10.8
58307;BMP280;44116;50.884;4.768;2023-05-21T04:44:53;101220.0;;;10.8
58307;BMP280;44116;50.884;4.768;2023-05-21T04:46:52;101220.0;;;10.7
58307;BMP280;44116;50.884;4.768;2023-05-21T04:48:52;101220.0;;;10.8
58307;BMP280;44116;50.884;4.768;2023-05-21T04:50:52;101220.0;;;10.9
58307;BMP280;44116;50.884;4.768;2023-05-21T04:52:52;101230.0;;;10.9
58307;BMP280;44116;50.884;4.768;2023-05-21T04:54:51;101230.0;;;11.0
58307;BMP280;44116;50.884;4.768;2023-05-21T04:56:51;101230.0;;;10.9
58307;BMP280;44116;50.884;4.768;2023-05-21T04:58:51;101230.0;;;11.0
58307;BMP280;44116;50.884;4.768;2023-05-21T05:00:51;101230.0;;;11.1
58307;BMP280;44116;50.884;4.768;2023-05-21T05:02:51;101220.0;;;11.0
58307;BMP280;44116;50.884;4.768;2023-05-21T05:04:50;101230.0;;;10.9
58307;BMP280;44116;50.884;4.768;2023-05-21T05:06:50;101230.0;;;11.0
58307;BMP280;44116;50.884;4.768;2023-05-21T05:08:50;101220.0;;;11.1
58307;BMP280;44116;50.884;4.768;2023-05-21T05:10:50;101230.0;;;11.1
58307;BMP280;44116;50.884;4.768;2023-05-21T05:12:49;101230.0;;;11.2
58307;BMP280;44116;50.884;4.768;2023-05-21T05:16:49;101220.0;;;11.2
58307;BMP280;44116;50.884;4.768;2023-05-21T05:18:49;101220.0;;;11.2
58307;BMP280;44116;50.884;4.768;2023-05-21T05:20:48;101220.0;;;11.1
58307;BMP280;44116;50.884;4.768;2023-05-21T05:22:48;101220.0;;;11.3
58307;BMP280;44116;50.884;4.768;2023-05-21T05:24:48;101220.0;;;11.3
58307;BMP280;44116;50.884;4.768;2023-05-21T05:26:48;101220.0;;;11.4
58307;BMP280;44116;50.884;4.768;2023-05-21T05:28:48;101220.0;;;11.4
58307;BMP280;44116;50.884;4.768;2023-05-21T05:32:47;101220.0;;;11.4
58307;BMP280;44116;50.884;4.768;2023-05-21T05:34:47;101210.0;;;11.4
58307;BMP280;44116;50.884;4.768;2023-05-21T05:38:46;101220.0;;;11.6
58307;BMP280;44116;50.884;4.768;2023-05-21T05:42:46;101220.0;;;11.6
58307;BMP280;44116;50.884;4.768;2023-05-21T05:46:46;101220.0;;;11.7
58307;BMP280;44116;50.884;4.768;2023-05-21T05:48:45;101220.0;;;11.9
58307;BMP280;44116;50.884;4.768;2023-05-21T05:50:46;101220.0;;;11.8
58307;BMP280;44116;50.884;4.768;2023-05-21T05:52:45;101230.0;;;11.9
58307;BMP280;44116;50.884;4.768;2023-05-21T05:54:45;101230.0;;;12.0
58307;BMP280;44116;50.884;4.768;2023-05-21T05:56:44;101230.0;;;12.0
58307;BMP280;44116;50.884;4.768;2023-05-21T05:58:44;101230.0;;;12.2
58307;BMP280;44116;50.884;4.768;2023-05-21T06:00:44;101230.0;;;12.2
58307;BMP280;44116;50.884;4.768;2023-05-21T06:04:44;101230.0;;;12.3
58307;BMP280;44116;50.884;4.768;2023-05-21T06:06:43;101240.0;;;12.3
58307;BMP280;44116;50.884;4.768;2023-05-21T06:08:43;101230.0;;;12.4
58307;BMP280;44116;50.884;4.768;2023-05-21T06:10:43;101230.0;;;12.4
58307;BMP280;44116;50.884;4.768;2023-05-21T06:12:43;101230.0;;;12.4
58307;BMP280;44116;50.884;4.768;2023-05-21T06:14:42;101230.0;;;12.4
58307;BMP280;44116;50.884;4.768;2023-05-21T06:16:42;101240.0;;;12.4
58307;BMP280;44116;50.884;4.768;2023-05-21T06:18:42;101240.0;;;12.4
58307;BMP280;44116;50.884;4.768;2023-05-21T06:20:42;101240.0;;;12.6
58307;BMP280;44116;50.884;4.768;2023-05-21T06:22:42;101240.0;;;12.6
58307;BMP280;44116;50.884;4.768;2023-05-21T06:26:41;101240.0;;;12.6
58307;BMP280;44116;50.884;4.768;2023-05-21T06:28:41;101240.0;;;12.6
58307;BMP280;44116;50.884;4.768;2023-05-21T06:30:41;101240.0;;;12.6
58307;BMP280;44116;50.884;4.768;2023-05-21T06:38:40;101240.0;;;12.8
58307;BMP280;44116;50.884;4.768;2023-05-21T06:40:40;101230.0;;;12.9
58307;BMP280;44116;50.884;4.768;2023-05-21T06:44:40;101240.0;;;13.0
58307;BMP280;44116;50.884;4.768;2023-05-21T06:48:39;101240.0;;;13.0
58307;BMP280;44116;50.884;4.768;2023-05-21T06:50:39;101240.0;;;13.1
58307;BMP280;44116;50.884;4.768;2023-05-21T06:52:39;101240.0;;;13.2
58307;BMP280;44116;50.884;4.768;2023-05-21T06:54:38;101240.0;;;13.2
58307;BMP280;44116;50.884;4.768;2023-05-21T06:56:39;101240.0;;;13.4
58307;BMP280;44116;50.884;4.768;2023-05-21T06:58:38;101230.0;;;13.1
58307;BMP280;44116;50.884;4.768;2023-05-21T07:00:38;101230.0;;;13.1
58307;BMP280;44116;50.884;4.768;2023-05-21T07:02:38;101230.0;;;13.5
58307;BMP280;44116;50.884;4.768;2023-05-21T07:04:37;101240.0;;;13.6
58307;BMP280;44116;50.884;4.768;2023-05-21T07:06:37;101240.0;;;13.8
58307;BMP280;44116;50.884;4.768;2023-05-21T07:08:37;101250.0;;;13.9
58307;BMP280;44116;50.884;4.768;2023-05-21T07:10:37;101250.0;;;13.9
58307;BMP280;44116;50.884;4.768;2023-05-21T07:14:36;101240.0;;;14.0
58307;BMP280;44116;50.884;4.768;2023-05-21T07:22:36;101230.0;;;14.4
58307;BMP280;44116;50.884;4.768;2023-05-21T07:24:36;101230.0;;;14.6
58307;BMP280;44116;50.884;4.768;2023-05-21T07:26:35;101230.0;;;14.4
58307;BMP280;44116;50.884;4.768;2023-05-21T07:30:35;101220.0;;;14.4
58307;BMP280;44116;50.884;4.768;2023-05-21T07:32:35;101220.0;;;14.4
58307;BMP280;44116;50.884;4.768;2023-05-21T07:34:35;101220.0;;;14.3
58307;BMP280;44116;50.884;4.768;2023-05-21T07:36:34;101220.0;;;14.6
58307;BMP280;44116;50.884;4.768;2023-05-21T07:38:34;101220.0;;;14.5
58307;BMP280;44116;50.884;4.768;2023-05-21T07:40:34;101220.0;;;14.6
58307;BMP280;44116;50.884;4.768;2023-05-21T07:42:34;101220.0;;;14.8
58307;BMP280;44116;50.884;4.768;2023-05-21T07:44:34;101220.0;;;14.7
58307;BMP280;44116;50.884;4.768;2023-05-21T07:46:34;101210.0;;;15.0
58307;BMP280;44116;50.884;4.768;2023-05-21T07:48:33;101210.0;;;15.0
58307;BMP280;44116;50.884;4.768;2023-05-21T07:50:33;101210.0;;;15.2
58307;BMP280;44116;50.884;4.768;2023-05-21T07:52:33;101210.0;;;15.3
58307;BMP280;44116;50.884;4.768;2023-05-21T07:54:33;101210.0;;;15.3
58307;BMP280;44116;50.884;4.768;2023-05-21T07:56:33;101210.0;;;15.4
58307;BMP280;44116;50.884;4.768;2023-05-21T07:58:32;101210.0;;;15.4
58307;BMP280;44116;50.884;4.768;2023-05-21T08:00:36;101210.0;;;15.5
58307;BMP280;44116;50.884;4.768;2023-05-21T08:02:32;101210.0;;;15.6
58307;BMP280;44116;50.884;4.768;2023-05-21T08:04:32;101210.0;;;15.7
58307;BMP280;44116;50.884;4.768;2023-05-21T08:06:32;101210.0;;;15.7
58307;BMP280;44116;50.884;4.768;2023-05-21T08:08:32;101210.0;;;15.8
58307;BMP280;44116;50.884;4.768;2023-05-21T08:10:32;101220.0;;;15.8
58307;BMP280;44116;50.884;4.768;2023-05-21T08:12:31;101220.0;;;15.6
58307;BMP280;44116;50.884;4.768;2023-05-21T08:14:31;101230.0;;;15.6
58307;BMP280;44116;50.884;4.768;2023-05-21T08:16:33;101220.0;;;15.8
58307;BMP280;44116;50.884;4.768;2023-05-21T08:18:31;101220.0;;;16.0
58307;BMP280;44116;50.884;4.768;2023-05-21T08:20:31;101220.0;;;16.0
58307;BMP280;44116;50.884;4.768;2023-05-21T08:22:31;101220.0;;;15.9
58307;BMP280;44116;50.884;4.768;2023-05-21T08:24:30;101220.0;;;16.0
58307;BMP280;44116;50.884;4.768;2023-05-21T08:26:30;101220.0;;;15.9
58307;BMP280;44116;50.884;4.768;2023-05-21T08:28:30;101230.0;;;15.7
58307;BMP280;44116;50.884;4.768;2023-05-21T08:30:30;101220.0;;;15.8
58307;BMP280;44116;50.884;4.768;2023-05-21T08:34:30;101220.0;;;15.7
58307;BMP280;44116;50.884;4.768;2023-05-21T08:36:30;101220.0;;;15.9
58307;BMP280;44116;50.884;4.768;2023-05-21T08:38:29;101220.0;;;16.1
58307;BMP280;44116;50.884;4.768;2023-05-21T08:40:29;101220.0;;;16.4
58307;BMP280;44116;50.884;4.768;2023-05-21T08:42:33;101220.0;;;16.5
58307;BMP280;44116;50.884;4.768;2023-05-21T08:44:29;101220.0;;;16.6
58307;BMP280;44116;50.884;4.768;2023-05-21T08:46:31;101220.0;;;16.6
58307;BMP280;44116;50.884;4.768;2023-05-21T08:50:29;101220.0;;;16.8
58307;BMP280;44116;50.884;4.768;2023-05-21T08:52:29;101220.0;;;16.4
58307;BMP280;44116;50.884;4.768;2023-05-21T08:54:28;101210.0;;;16.6
58307;BMP280;44116;50.884;4.768;2023-05-21T08:56:29;101220.0;;;16.9
58307;BMP280;44116;50.884;4.768;2023-05-21T08:58:28;101210.0;;;16.8
58307;BMP280;44116;50.884;4.768;2023-05-21T09:00:28;101210.0;;;16.6
58307;BMP280;44116;50.884;4.768;2023-05-21T09:02:28;101210.0;;;16.8
58307;BMP280;44116;50.884;4.768;2023-05-21T09:04:28;101210.0;;;17.0
58307;BMP280;44116;50.884;4.768;2023-05-21T09:06:28;101200.0;;;17.0
58307;BMP280;44116;50.884;4.768;2023-05-21T09:08:28;101200.0;;;17.0
58307;BMP280;44116;50.884;4.768;2023-05-21T09:12:27;101200.0;;;17.0
58307;BMP280;44116;50.884;4.768;2023-05-21T09:14:27;101200.0;;;17.0
58307;BMP280;44116;50.884;4.768;2023-05-21T09:16:27;101200.0;;;17.1
58307;BMP280;44116;50.884;4.768;2023-05-21T09:18:27;101210.0;;;17.1
58307;BMP280;44116;50.884;4.768;2023-05-21T09:20:27;101200.0;;;17.0
58307;BMP280;44116;50.884;4.768;2023-05-21T09:22:27;101200.0;;;17.0
58307;BMP280;44116;50.884;4.768;2023-05-21T09:26:26;101190.0;;;17.0
58307;BMP280;44116;50.884;4.768;2023-05-21T09:28:26;101190.0;;;17.5
58307;BMP280;44116;50.884;4.768;2023-05-21T09:32:26;101190.0;;;17.6
58307;BMP280;44116;50.884;4.768;2023-05-21T09:34:26;101190.0;;;17.4
58307;BMP280;44116;50.884;4.768;2023-05-21T09:36:26;101190.0;;;17.6
58307;BMP280;44116;50.884;4.768;2023-05-21T09:38:26;101190.0;;;17.7
58307;BMP280;44116;50.884;4.768;2023-05-21T09:40:26;101180.0;;;17.7
58307;BMP280;44116;50.884;4.768;2023-05-21T09:42:26;101190.0;;;17.5
58307;BMP280;44116;50.884;4.768;2023-05-21T09:46:25;101190.0;;;17.6
58307;BMP280;44116;50.884;4.768;2023-05-21T09:50:25;101180.0;;;17.6
58307;BMP280;44116;50.884;4.768;2023-05-21T09:52:25;101180.0;;;17.6
58307;BMP280;44116;50.884;4.768;2023-05-21T09:54:29;101190.0;;;17.8
58307;BMP280;44116;50.884;4.768;2023-05-21T09:56:26;101180.0;;;17.9
58307;BMP280;44116;50.884;4.768;2023-05-21T09:58:25;101180.0;;;17.7
58307;BMP280;44116;50.884;4.768;2023-05-21T10:00:26;101170.0;;;17.8
58307;BMP280;44116;50.884;4.768;2023-05-21T10:04:25;101170.0;;;18.1
58307;BMP280;44116;50.884;4.768;2023-05-21T10:06:25;101170.0;;;18.2
58307;BMP280;44116;50.884;4.768;2023-05-21T10:08:25;101170.0;;;18.2
58307;BMP280;44116;50.884;4.768;2023-05-21T10:10:24;101150.0;;;18.2
58307;BMP280;44116;50.884;4.768;2023-05-21T10:12:24;101150.0;;;18.6
58307;BMP280;44116;50.884;4.768;2023-05-21T10:14:24;101160.0;;;18.5
58307;BMP280;44116;50.884;4.768;2023-05-21T10:16:24;101150.0;;;18.7
58307;BMP280;44116;50.884;4.768;2023-05-21T10:18:24;101160.0;;;18.9
58307;BMP280;44116;50.884;4.768;2023-05-21T10:20:24;101150.0;;;18.8
58307;BMP280;44116;50.884;4.768;2023-05-21T10:22:24;101160.0;;;18.6
58307;BMP280;44116;50.884;4.768;2023-05-21T10:24:24;101150.0;;;18.6
58307;BMP280;44116;50.884;4.768;2023-05-21T10:26:24;101150.0;;;18.6
58307;BMP280;44116;50.884;4.768;2023-05-21T10:28:23;101150.0;;;18.7
58307;BMP280;44116;50.884;4.768;2023-05-21T10:30:24;101150.0;;;18.4
58307;BMP280;44116;50.884;4.768;2023-05-21T10:32:23;101140.0;;;18.5
58307;BMP280;44116;50.884;4.768;2023-05-21T10:38:23;101130.0;;;18.2
58307;BMP280;44116;50.884;4.768;2023-05-21T10:42:25;101130.0;;;18.2
58307;BMP280;44116;50.884;4.768;2023-05-21T10:44:25;101120.0;;;18.3
58307;BMP280;44116;50.884;4.768;2023-05-21T10:46:29;101130.0;;;18.3
58307;BMP280;44116;50.884;4.768;2023-05-21T10:48:27;101130.0;;;18.4
58307;BMP280;44116;50.884;4.768;2023-05-21T10:52:29;101120.0;;;18.7
58307;BMP280;44116;50.884;4.768;2023-05-21T10:54:29;101120.0;;;18.8
58307;BMP280;44116;50.884;4.768;2023-05-21T11:00:22;101110.0;;;18.9
58307;BMP280;44116;50.884;4.768;2023-05-21T11:02:23;101110.0;;;18.8
58307;BMP280;44116;50.884;4.768;2023-05-21T11:04:25;101100.0;;;19.1
58307;BMP280;44116;50.884;4.768;2023-05-21T11:06:23;101100.0;;;19.2
58307;BMP280;44116;50.884;4.768;2023-05-21T11:10:30;101090.0;;;19.0
58307;BMP280;44116;50.884;4.768;2023-05-21T11:12:22;101100.0;;;19.0
58307;BMP280;44116;50.884;4.768;2023-05-21T11:14:30;101090.0;;;19.2
58307;BMP280;44116;50.884;4.768;2023-05-21T11:16:22;101090.0;;;19.6
58307;BMP280;44116;50.884;4.768;2023-05-21T11:18:22;101080.0;;;19.5
58307;BMP280;44116;50.884;4.768;2023-05-21T11:20:22;101090.0;;;19.2
58307;BMP280;44116;50.884;4.768;2023-05-21T11:22:22;101080.0;;;19.3
58307;BMP280;44116;50.884;4.768;2023-05-21T11:24:22;101080.0;;;19.5
58307;BMP280;44116;50.884;4.768;2023-05-21T11:26:22;101080.0;;;19.3
58307;BMP280;44116;50.884;4.768;2023-05-21T11:28:31;101080.0;;;19.4
58307;BMP280;44116;50.884;4.768;2023-05-21T11:30:21;101090.0;;;19.6
58307;BMP280;44116;50.884;4.768;2023-05-21T11:32:21;101080.0;;;19.8
58307;BMP280;44116;50.884;4.768;2023-05-21T11:34:22;101080.0;;;19.5
58307;BMP280;44116;50.884;4.768;2023-05-21T11:38:21;101090.0;;;19.8
58307;BMP280;44116;50.884;4.768;2023-05-21T11:40:22;101090.0;;;19.6
58307;BMP280;44116;50.884;4.768;2023-05-21T11:42:29;101090.0;;;19.6
58307;BMP280;44116;50.884;4.768;2023-05-21T11:46:21;101100.0;;;20.0
58307;BMP280;44116;50.884;4.768;2023-05-21T11:48:22;101100.0;;;19.5
58307;BMP280;44116;50.884;4.768;2023-05-21T11:50:21;101110.0;;;19.4
58307;BMP280;44116;50.884;4.768;2023-05-21T11:52:21;101110.0;;;19.6
58307;BMP280;44116;50.884;4.768;2023-05-21T11:54:21;101100.0;;;19.8
58307;BMP280;44116;50.884;4.768;2023-05-21T11:56:21;101100.0;;;19.8
58307;BMP280;44116;50.884;4.768;2023-05-21T11:58:21;101090.0;;;20.2
58307;BMP280;44116;50.884;4.768;2023-05-21T12:00:21;101090.0;;;20.4
58307;BMP280;44116;50.884;4.768;2023-05-21T12:02:21;101100.0;;;20.6
58307;BMP280;44116;50.884;4.768;2023-05-21T12:04:21;101080.0;;;20.3
58307;BMP280;44116;50.884;4.768;2023-05-21T12:06:24;101090.0;;;20.4
58307;BMP280;44116;50.884;4.768;2023-05-21T12:08:21;101090.0;;;20.2
58307;BMP280;44116;50.884;4.768;2023-05-21T12:10:21;101080.0;;;20.2
58307;BMP280;44116;50.884;4.768;2023-05-21T12:12:21;101080.0;;;20.4
58307;BMP280;44116;50.884;4.768;2023-05-21T12:14:20;101090.0;;;20.5
58307;BMP280;44116;50.884;4.768;2023-05-21T12:16:21;101090.0;;;20.5
58307;BMP280;44116;50.884;4.768;2023-05-21T12:18:20;101080.0;;;20.5
58307;BMP280;44116;50.884;4.768;2023-05-21T12:20:20;101090.0;;;20.7
58307;BMP280;44116;50.884;4.768;2023-05-21T12:22:21;101090.0;;;20.6
58307;BMP280;44116;50.884;4.768;2023-05-21T12:24:20;101070.0;;;20.7
58307;BMP280;44116;50.884;4.768;2023-05-21T12:26:20;101080.0;;;20.7
58307;BMP280;44116;50.884;4.768;2023-05-21T12:28:20;101080.0;;;20.4
58307;BMP280;44116;50.884;4.768;2023-05-21T12:30:20;101080.0;;;20.2
58307;BMP280;44116;50.884;4.768;2023-05-21T12:32:20;101080.0;;;20.2
58307;BMP280;44116;50.884;4.768;2023-05-21T12:36:20;101070.0;;;20.3
58307;BMP280;44116;50.884;4.768;2023-05-21T12:38:20;101070.0;;;20.1
58307;BMP280;44116;50.884;4.768;2023-05-21T12:40:20;101070.0;;;20.5
58307;BMP280;44116;50.884;4.768;2023-05-21T12:44:20;101060.0;;;20.5
58307;BMP280;44116;50.884;4.768;2023-05-21T12:46:20;101070.0;;;20.7
58307;BMP280;44116;50.884;4.768;2023-05-21T12:48:20;101070.0;;;20.9
58307;BMP280;44116;50.884;4.768;2023-05-21T12:50:20;101060.0;;;20.7
58307;BMP280;44116;50.884;4.768;2023-05-21T12:52:20;101070.0;;;20.8
58307;BMP280;44116;50.884;4.768;2023-05-21T12:54:20;101070.0;;;21.1
58307;BMP280;44116;50.884;4.768;2023-05-21T12:56:20;101050.0;;;21.0
58307;BMP280;44116;50.884;4.768;2023-05-21T12:58:20;101050.0;;;20.9
58307;BMP280;44116;50.884;4.768;2023-05-21T13:00:22;101050.0;;;20.9
58307;BMP280;44116;50.884;4.768;2023-05-21T13:02:21;101060.0;;;21.1
58307;BMP280;44116;50.884;4.768;2023-05-21T13:04:20;101060.0;;;21.1
58307;BMP280;44116;50.884;4.768;2023-05-21T13:06:20;101060.0;;;21.2
58307;BMP280;44116;50.884;4.768;2023-05-21T13:08:20;101060.0;;;21.1
58307;BMP280;44116;50.884;4.768;2023-05-21T13:10:20;101060.0;;;21.5
58307;BMP280;44116;50.884;4.768;2023-05-21T13:12:20;101050.0;;;21.5